sensor_id;sensor_type;location;lat;lon;timestamp;P1;durP1;ratioP1;P2;durP2;ratioP2
18520;SDS011;9390;51.244;6.982;2023-03-04T00:01:26;93.32;;;32.10;;
18520;SDS011;9390;51.244;6.982;2023-03-04T00:03:59;90.90;;;29.88;;
18520;SDS011;9390;51.244;6.982;2023-03-04T00:06:30;83.68;;;31.35;;
18520;SDS011;9390;51.244;6.982;2023-03-04T00:09:02;88.32;;;29.73;;
18520;SDS011;9390;51.244;6.982;2023-03-04T00:11:33;90.40;;;30.67;;
18520;SDS011;9390;51.244;6.982;2023-03-04T00:14:05;95.88;;;30.77;;
18520;SDS011;9390;51.244;6.982;2023-03-04T00:16:36;92.35;;;31.05;;
18520;SDS011;9390;51.244;6.982;2023-03-04T00:19:09;87.30;;;32.22;;
18520;SDS011;9390;51.244;6.982;2023-03-04T00:24:12;91.80;;;30.73;;
18520;SDS011;9390;51.244;6.982;2023-03-04T00:26:44;83.10;;;28.55;;
18520;SDS011;9390;51.244;6.982;2023-03-04T00:29:15;81.97;;;26.98;;
18520;SDS011;9390;51.244;6.982;2023-03-04T00:31:47;78.75;;;27.67;;
18520;SDS011;9390;51.244;6.982;2023-03-04T00:34:20;82.15;;;28.05;;
18520;SDS011;9390;51.244;6.982;2023-03-04T00:36:51;76.85;;;30.58;;
18520;SDS011;9390;51.244;6.982;2023-03-04T00:39:22;84.68;;;29.38;;
18520;SDS011;9390;51.244;6.982;2023-03-04T00:41:54;85.35;;;29.73;;
18520;SDS011;9390;51.244;6.982;2023-03-04T00:44:25;81.20;;;27.98;;
18520;SDS011;9390;51.244;6.982;2023-03-04T00:46:57;69.15;;;26.77;;
18520;SDS011;9390;51.244;6.982;2023-03-04T00:49:29;78.72;;;27.63;;
18520;SDS011;9390;51.244;6.982;2023-03-04T00:52:01;75.57;;;26.27;;
18520;SDS011;9390;51.244;6.982;2023-03-04T00:54:32;74.72;;;28.20;;
18520;SDS011;9390;51.244;6.982;2023-03-04T00:57:04;45.65;;;17.33;;
18520;SDS011;9390;51.244;6.982;2023-03-04T00:59:35;44.47;;;15.20;;
18520;SDS011;9390;51.244;6.982;2023-03-04T01:02:09;36.90;;;13.95;;
18520;SDS011;9390;51.244;6.982;2023-03-04T01:04:42;40.17;;;13.73;;
18520;SDS011;9390;51.244;6.982;2023-03-04T01:07:13;42.10;;;15.35;;
18520;SDS011;9390;51.244;6.982;2023-03-04T01:09:45;35.40;;;12.85;;
18520;SDS011;9390;51.244;6.982;2023-03-04T01:12:16;40.35;;;12.73;;
18520;SDS011;9390;51.244;6.982;2023-03-04T01:14:47;34.42;;;13.75;;
18520;SDS011;9390;51.244;6.982;2023-03-04T01:17:19;28.85;;;11.77;;
18520;SDS011;9390;51.244;6.982;2023-03-04T01:19:51;34.33;;;12.52;;
18520;SDS011;9390;51.244;6.982;2023-03-04T01:22:23;35.10;;;12.27;;
18520;SDS011;9390;51.244;6.982;2023-03-04T01:24:54;28.73;;;11.07;;
18520;SDS011;9390;51.244;6.982;2023-03-04T01:27:26;32.70;;;11.32;;
18520;SDS011;9390;51.244;6.982;2023-03-04T01:29:57;35.78;;;12.20;;
18520;SDS011;9390;51.244;6.982;2023-03-04T01:32:28;32.28;;;12.30;;
18520;SDS011;9390;51.244;6.982;2023-03-04T01:35:01;37.78;;;11.27;;
18520;SDS011;9390;51.244;6.982;2023-03-04T01:37:32;36.38;;;12.40;;
18520;SDS011;9390;51.244;6.982;2023-03-04T01:40:04;36.75;;;11.32;;
18520;SDS011;9390;51.244;6.982;2023-03-04T01:42:36;35.67;;;12.63;;
18520;SDS011;9390;51.244;6.982;2023-03-04T01:45:09;38.30;;;14.00;;
18520;SDS011;9390;51.244;6.982;2023-03-04T01:47:43;37.65;;;13.95;;
18520;SDS011;9390;51.244;6.982;2023-03-04T01:50:20;44.28;;;15.98;;
18520;SDS011;9390;51.244;6.982;2023-03-04T01:52:52;46.55;;;18.58;;
18520;SDS011;9390;51.244;6.982;2023-03-04T01:55:29;51.55;;;19.85;;
18520;SDS011;9390;51.244;6.982;2023-03-04T01:58:01;56.05;;;20.52;;
18520;SDS011;9390;51.244;6.982;2023-03-04T02:00:32;50.78;;;18.67;;
18520;SDS011;9390;51.244;6.982;2023-03-04T02:03:05;53.65;;;17.70;;
18520;SDS011;9390;51.244;6.982;2023-03-04T02:05:40;34.25;;;12.10;;
18520;SDS011;9390;51.244;6.982;2023-03-04T02:08:13;32.15;;;12.38;;
18520;SDS011;9390;51.244;6.982;2023-03-04T02:10:45;28.07;;;10.20;;
18520;SDS011;9390;51.244;6.982;2023-03-04T02:13:17;28.33;;;10.57;;
18520;SDS011;9390;51.244;6.982;2023-03-04T02:15:48;28.55;;;10.05;;
18520;SDS011;9390;51.244;6.982;2023-03-04T02:18:20;32.45;;;10.57;;
18520;SDS011;9390;51.244;6.982;2023-03-04T02:20:58;29.63;;;11.00;;
18520;SDS011;9390;51.244;6.982;2023-03-04T02:23:34;35.38;;;10.68;;
18520;SDS011;9390;51.244;6.982;2023-03-04T02:26:12;25.45;;;9.20;;
18520;SDS011;9390;51.244;6.982;2023-03-04T02:28:45;29.92;;;9.75;;
18520;SDS011;9390;51.244;6.982;2023-03-04T02:31:22;30.08;;;9.93;;
18520;SDS011;9390;51.244;6.982;2023-03-04T02:33:56;26.27;;;9.52;;
18520;SDS011;9390;51.244;6.982;2023-03-04T02:39:01;25.52;;;8.07;;
18520;SDS011;9390;51.244;6.982;2023-03-04T02:41:35;30.10;;;8.82;;
18520;SDS011;9390;51.244;6.982;2023-03-04T02:44:08;32.45;;;8.48;;
18520;SDS011;9390;51.244;6.982;2023-03-04T02:46:45;34.33;;;7.53;;
18520;SDS011;9390;51.244;6.982;2023-03-04T02:49:17;23.58;;;6.70;;
18520;SDS011;9390;51.244;6.982;2023-03-04T02:51:49;27.83;;;6.78;;
18520;SDS011;9390;51.244;6.982;2023-03-04T02:54:22;25.60;;;7.05;;
18520;SDS011;9390;51.244;6.982;2023-03-04T02:56:56;22.20;;;6.05;;
18520;SDS011;9390;51.244;6.982;2023-03-04T02:59:29;21.48;;;6.50;;
18520;SDS011;9390;51.244;6.982;2023-03-04T03:02:00;24.98;;;8.02;;
18520;SDS011;9390;51.244;6.982;2023-03-04T03:04:32;22.48;;;7.18;;
18520;SDS011;9390;51.244;6.982;2023-03-04T03:07:04;29.77;;;6.72;;
18520;SDS011;9390;51.244;6.982;2023-03-04T03:09:36;24.13;;;6.40;;
18520;SDS011;9390;51.244;6.982;2023-03-04T03:12:09;20.92;;;5.90;;
18520;SDS011;9390;51.244;6.982;2023-03-04T03:14:40;30.08;;;6.90;;
18520;SDS011;9390;51.244;6.982;2023-03-04T03:17:12;27.23;;;6.10;;
18520;SDS011;9390;51.244;6.982;2023-03-04T03:19:43;25.60;;;7.18;;
18520;SDS011;9390;51.244;6.982;2023-03-04T03:22:14;21.85;;;6.55;;
18520;SDS011;9390;51.244;6.982;2023-03-04T03:24:46;22.42;;;6.53;;
18520;SDS011;9390;51.244;6.982;2023-03-04T03:27:18;20.42;;;5.65;;
18520;SDS011;9390;51.244;6.982;2023-03-04T03:29:50;25.75;;;5.75;;
18520;SDS011;9390;51.244;6.982;2023-03-04T03:32:21;23.15;;;5.53;;
18520;SDS011;9390;51.244;6.982;2023-03-04T03:34:53;24.67;;;6.32;;
18520;SDS011;9390;51.244;6.982;2023-03-04T03:37:24;22.83;;;5.70;;
18520;SDS011;9390;51.244;6.982;2023-03-04T03:39:55;21.35;;;4.97;;
18520;SDS011;9390;51.244;6.982;2023-03-04T03:42:28;18.38;;;4.05;;
18520;SDS011;9390;51.244;6.982;2023-03-04T03:44:59;17.60;;;6.32;;
18520;SDS011;9390;51.244;6.982;2023-03-04T03:47:31;20.08;;;5.05;;
18520;SDS011;9390;51.244;6.982;2023-03-04T03:50:03;19.95;;;4.95;;
18520;SDS011;9390;51.244;6.982;2023-03-04T03:52:34;18.48;;;5.10;;
18520;SDS011;9390;51.244;6.982;2023-03-04T03:55:06;27.63;;;5.05;;
18520;SDS011;9390;51.244;6.982;2023-03-04T03:57:39;19.35;;;4.93;;
18520;SDS011;9390;51.244;6.982;2023-03-04T04:00:11;21.00;;;4.72;;
18520;SDS011;9390;51.244;6.982;2023-03-04T04:02:43;20.13;;;4.32;;
18520;SDS011;9390;51.244;6.982;2023-03-04T04:05:15;22.75;;;6.55;;
18520;SDS011;9390;51.244;6.982;2023-03-04T04:07:46;23.30;;;4.50;;
18520;SDS011;9390;51.244;6.982;2023-03-04T04:10:18;16.55;;;4.38;;
18520;SDS011;9390;51.244;6.982;2023-03-04T04:12:50;13.65;;;4.22;;
18520;SDS011;9390;51.244;6.982;2023-03-04T04:15:22;17.90;;;3.90;;
18520;SDS011;9390;51.244;6.982;2023-03-04T04:17:53;20.05;;;4.25;;
18520;SDS011;9390;51.244;6.982;2023-03-04T04:20:25;17.05;;;4.90;;
18520;SDS011;9390;51.244;6.982;2023-03-04T04:22:56;15.90;;;4.47;;
18520;SDS011;9390;51.244;6.982;2023-03-04T04:25:27;17.15;;;3.95;;
18520;SDS011;9390;51.244;6.982;2023-03-04T04:28:00;19.95;;;4.90;;
18520;SDS011;9390;51.244;6.982;2023-03-04T04:30:32;17.20;;;4.05;;
18520;SDS011;9390;51.244;6.982;2023-03-04T04:33:03;17.02;;;4.75;;
18520;SDS011;9390;51.244;6.982;2023-03-04T04:35:35;21.02;;;4.70;;
18520;SDS011;9390;51.244;6.982;2023-03-04T04:38:07;17.70;;;4.53;;
18520;SDS011;9390;51.244;6.982;2023-03-04T04:40:39;21.38;;;4.47;;
18520;SDS011;9390;51.244;6.982;2023-03-04T04:43:13;17.98;;;4.45;;
18520;SDS011;9390;51.244;6.982;2023-03-04T04:45:44;23.33;;;3.97;;
18520;SDS011;9390;51.244;6.982;2023-03-04T04:48:16;20.73;;;4.88;;
18520;SDS011;9390;51.244;6.982;2023-03-04T04:50:52;15.25;;;3.22;;
18520;SDS011;9390;51.244;6.982;2023-03-04T04:53:24;19.35;;;4.03;;
18520;SDS011;9390;51.244;6.982;2023-03-04T04:55:55;20.23;;;4.30;;
18520;SDS011;9390;51.244;6.982;2023-03-04T04:58:28;25.70;;;4.15;;
18520;SDS011;9390;51.244;6.982;2023-03-04T05:00:59;19.88;;;4.75;;
18520;SDS011;9390;51.244;6.982;2023-03-04T05:03:31;11.38;;;3.08;;
18520;SDS011;9390;51.244;6.982;2023-03-04T05:06:04;20.27;;;3.95;;
18520;SDS011;9390;51.244;6.982;2023-03-04T05:08:36;22.88;;;3.80;;
18520;SDS011;9390;51.244;6.982;2023-03-04T05:11:07;17.30;;;3.63;;
18520;SDS011;9390;51.244;6.982;2023-03-04T05:13:40;18.17;;;3.83;;
18520;SDS011;9390;51.244;6.982;2023-03-04T05:16:12;13.27;;;3.63;;
18520;SDS011;9390;51.244;6.982;2023-03-04T05:18:43;14.55;;;3.63;;
18520;SDS011;9390;51.244;6.982;2023-03-04T05:21:15;12.40;;;3.40;;
18520;SDS011;9390;51.244;6.982;2023-03-04T05:23:46;26.67;;;4.88;;
18520;SDS011;9390;51.244;6.982;2023-03-04T05:26:17;18.48;;;4.03;;
18520;SDS011;9390;51.244;6.982;2023-03-04T05:28:50;15.68;;;3.72;;
18520;SDS011;9390;51.244;6.982;2023-03-04T05:31:22;10.45;;;3.10;;
18520;SDS011;9390;51.244;6.982;2023-03-04T05:33:53;17.60;;;3.20;;
18520;SDS011;9390;51.244;6.982;2023-03-04T05:36:24;17.70;;;3.38;;
18520;SDS011;9390;51.244;6.982;2023-03-04T05:38:56;12.68;;;3.10;;
18520;SDS011;9390;51.244;6.982;2023-03-04T05:41:27;14.25;;;3.00;;
18520;SDS011;9390;51.244;6.982;2023-03-04T05:44:00;14.15;;;3.30;;
18520;SDS011;9390;51.244;6.982;2023-03-04T05:46:31;18.58;;;3.42;;
18520;SDS011;9390;51.244;6.982;2023-03-04T05:49:03;21.45;;;3.63;;
18520;SDS011;9390;51.244;6.982;2023-03-04T05:51:34;19.65;;;3.08;;
18520;SDS011;9390;51.244;6.982;2023-03-04T05:54:06;12.80;;;2.92;;
18520;SDS011;9390;51.244;6.982;2023-03-04T05:56:37;13.45;;;3.58;;
18520;SDS011;9390;51.244;6.982;2023-03-04T05:59:10;17.73;;;3.85;;
18520;SDS011;9390;51.244;6.982;2023-03-04T06:01:41;14.18;;;3.38;;
18520;SDS011;9390;51.244;6.982;2023-03-04T06:04:12;11.82;;;3.10;;
18520;SDS011;9390;51.244;6.982;2023-03-04T06:06:44;13.10;;;2.53;;
18520;SDS011;9390;51.244;6.982;2023-03-04T06:09:16;17.88;;;3.38;;
18520;SDS011;9390;51.244;6.982;2023-03-04T06:11:50;12.77;;;3.53;;
18520;SDS011;9390;51.244;6.982;2023-03-04T06:14:22;15.57;;;3.80;;
18520;SDS011;9390;51.244;6.982;2023-03-04T06:16:54;12.70;;;2.88;;
18520;SDS011;9390;51.244;6.982;2023-03-04T06:19:25;21.92;;;3.50;;
18520;SDS011;9390;51.244;6.982;2023-03-04T06:21:56;18.80;;;3.67;;
18520;SDS011;9390;51.244;6.982;2023-03-04T06:24:28;19.63;;;3.55;;
18520;SDS011;9390;51.244;6.982;2023-03-04T06:26:59;16.25;;;3.60;;
18520;SDS011;9390;51.244;6.982;2023-03-04T06:29:32;13.40;;;3.22;;
18520;SDS011;9390;51.244;6.982;2023-03-04T06:32:04;17.95;;;3.20;;
18520;SDS011;9390;51.244;6.982;2023-03-04T06:34:35;18.98;;;4.18;;
18520;SDS011;9390;51.244;6.982;2023-03-04T06:37:07;13.32;;;3.83;;
18520;SDS011;9390;51.244;6.982;2023-03-04T06:39:38;15.95;;;3.33;;
18520;SDS011;9390;51.244;6.982;2023-03-04T06:42:09;25.30;;;4.03;;
18520;SDS011;9390;51.244;6.982;2023-03-04T06:44:42;18.88;;;3.80;;
18520;SDS011;9390;51.244;6.982;2023-03-04T06:47:13;10.20;;;3.55;;
18520;SDS011;9390;51.244;6.982;2023-03-04T06:49:45;13.13;;;4.07;;
18520;SDS011;9390;51.244;6.982;2023-03-04T06:52:16;16.27;;;3.92;;
18520;SDS011;9390;51.244;6.982;2023-03-04T06:54:48;14.15;;;3.22;;
18520;SDS011;9390;51.244;6.982;2023-03-04T06:57:19;15.27;;;3.65;;
18520;SDS011;9390;51.244;6.982;2023-03-04T06:59:52;8.98;;;2.85;;
18520;SDS011;9390;51.244;6.982;2023-03-04T07:02:23;17.88;;;2.67;;
18520;SDS011;9390;51.244;6.982;2023-03-04T07:04:55;17.27;;;3.92;;
18520;SDS011;9390;51.244;6.982;2023-03-04T07:07:26;13.82;;;3.03;;
18520;SDS011;9390;51.244;6.982;2023-03-04T07:09:57;14.23;;;3.78;;
18520;SDS011;9390;51.244;6.982;2023-03-04T07:12:29;15.50;;;3.72;;
18520;SDS011;9390;51.244;6.982;2023-03-04T07:15:02;14.00;;;3.05;;
18520;SDS011;9390;51.244;6.982;2023-03-04T07:17:33;12.30;;;3.05;;
18520;SDS011;9390;51.244;6.982;2023-03-04T07:20:05;15.68;;;2.63;;
18520;SDS011;9390;51.244;6.982;2023-03-04T07:22:37;13.65;;;4.07;;
18520;SDS011;9390;51.244;6.982;2023-03-04T07:25:08;16.98;;;2.72;;
18520;SDS011;9390;51.244;6.982;2023-03-04T07:27:41;13.00;;;2.65;;
18520;SDS011;9390;51.244;6.982;2023-03-04T07:30:14;14.77;;;3.30;;
18520;SDS011;9390;51.244;6.982;2023-03-04T07:32:45;14.20;;;3.25;;
18520;SDS011;9390;51.244;6.982;2023-03-04T07:35:17;10.73;;;2.63;;
18520;SDS011;9390;51.244;6.982;2023-03-04T07:37:48;18.05;;;3.70;;
18520;SDS011;9390;51.244;6.982;2023-03-04T07:40:20;11.55;;;2.25;;
18520;SDS011;9390;51.244;6.982;2023-03-04T07:42:52;14.98;;;3.35;;
18520;SDS011;9390;51.244;6.982;2023-03-04T07:45:26;13.68;;;3.15;;
18520;SDS011;9390;51.244;6.982;2023-03-04T07:47:57;18.25;;;3.10;;
18520;SDS011;9390;51.244;6.982;2023-03-04T07:50:29;13.45;;;2.92;;
18520;SDS011;9390;51.244;6.982;2023-03-04T07:53:00;9.02;;;3.92;;
18520;SDS011;9390;51.244;6.982;2023-03-04T07:55:31;10.88;;;2.67;;
18520;SDS011;9390;51.244;6.982;2023-03-04T07:58:03;11.05;;;3.10;;
18520;SDS011;9390;51.244;6.982;2023-03-04T08:00:36;10.13;;;2.65;;
18520;SDS011;9390;51.244;6.982;2023-03-04T08:03:07;12.98;;;3.05;;
18520;SDS011;9390;51.244;6.982;2023-03-04T08:05:38;15.15;;;2.60;;
18520;SDS011;9390;51.244;6.982;2023-03-04T08:08:10;8.90;;;2.80;;
18520;SDS011;9390;51.244;6.982;2023-03-04T08:10:41;7.32;;;2.55;;
18520;SDS011;9390;51.244;6.982;2023-03-04T08:13:13;11.85;;;2.70;;
18520;SDS011;9390;51.244;6.982;2023-03-04T08:15:46;11.55;;;2.90;;
18520;SDS011;9390;51.244;6.982;2023-03-04T08:18:17;13.10;;;2.97;;
18520;SDS011;9390;51.244;6.982;2023-03-04T08:20:48;11.85;;;3.03;;
18520;SDS011;9390;51.244;6.982;2023-03-04T08:23:20;15.63;;;3.17;;
18520;SDS011;9390;51.244;6.982;2023-03-04T08:25:51;11.13;;;2.83;;
18520;SDS011;9390;51.244;6.982;2023-03-04T08:28:23;12.73;;;3.47;;
18520;SDS011;9390;51.244;6.982;2023-03-04T08:30:56;9.73;;;3.58;;
18520;SDS011;9390;51.244;6.982;2023-03-04T08:33:27;19.38;;;4.75;;
18520;SDS011;9390;51.244;6.982;2023-03-04T08:35:59;20.80;;;6.45;;
18520;SDS011;9390;51.244;6.982;2023-03-04T08:38:30;15.07;;;6.00;;
18520;SDS011;9390;51.244;6.982;2023-03-04T08:41:02;16.52;;;6.45;;
18520;SDS011;9390;51.244;6.982;2023-03-04T08:43:33;21.05;;;7.13;;
18520;SDS011;9390;51.244;6.982;2023-03-04T08:46:06;18.83;;;6.20;;
18520;SDS011;9390;51.244;6.982;2023-03-04T08:48:38;20.17;;;6.70;;
18520;SDS011;9390;51.244;6.982;2023-03-04T08:51:10;23.85;;;7.13;;
18520;SDS011;9390;51.244;6.982;2023-03-04T08:53:42;23.50;;;6.72;;
18520;SDS011;9390;51.244;6.982;2023-03-04T08:56:14;22.88;;;7.80;;
18520;SDS011;9390;51.244;6.982;2023-03-04T08:58:47;22.67;;;7.07;;
18520;SDS011;9390;51.244;6.982;2023-03-04T09:01:19;24.17;;;7.20;;
18520;SDS011;9390;51.244;6.982;2023-03-04T09:03:51;23.17;;;7.88;;
18520;SDS011;9390;51.244;6.982;2023-03-04T09:06:22;21.67;;;7.32;;
18520;SDS011;9390;51.244;6.982;2023-03-04T09:08:53;17.40;;;6.82;;
18520;SDS011;9390;51.244;6.982;2023-03-04T09:11:25;22.73;;;8.48;;
18520;SDS011;9390;51.244;6.982;2023-03-04T09:13:56;27.90;;;9.98;;
18520;SDS011;9390;51.244;6.982;2023-03-04T09:16:29;20.15;;;8.27;;
18520;SDS011;9390;51.244;6.982;2023-03-04T09:19:00;22.48;;;8.25;;
18520;SDS011;9390;51.244;6.982;2023-03-04T09:21:32;27.60;;;10.38;;
18520;SDS011;9390;51.244;6.982;2023-03-04T09:24:03;32.45;;;11.23;;
18520;SDS011;9390;51.244;6.982;2023-03-04T09:26:35;31.98;;;12.05;;
18520;SDS011;9390;51.244;6.982;2023-03-04T09:29:07;25.83;;;11.05;;
18520;SDS011;9390;51.244;6.982;2023-03-04T09:31:39;30.40;;;11.65;;
18520;SDS011;9390;51.244;6.982;2023-03-04T09:34:11;33.38;;;12.43;;
18520;SDS011;9390;51.244;6.982;2023-03-04T09:36:42;34.58;;;12.57;;
18520;SDS011;9390;51.244;6.982;2023-03-04T09:39:14;28.17;;;11.90;;
18520;SDS011;9390;51.244;6.982;2023-03-04T09:41:46;26.45;;;10.30;;
18520;SDS011;9390;51.244;6.982;2023-03-04T09:44:21;26.40;;;8.95;;
18520;SDS011;9390;51.244;6.982;2023-03-04T09:46:55;22.73;;;7.65;;
18520;SDS011;9390;51.244;6.982;2023-03-04T09:49:29;30.80;;;8.02;;
18520;SDS011;9390;51.244;6.982;2023-03-04T09:52:02;23.00;;;8.57;;
18520;SDS011;9390;51.244;6.982;2023-03-04T09:54:42;21.50;;;7.82;;
18520;SDS011;9390;51.244;6.982;2023-03-04T09:57:23;21.75;;;8.40;;
18520;SDS011;9390;51.244;6.982;2023-03-04T10:00:02;19.25;;;7.82;;
18520;SDS011;9390;51.244;6.982;2023-03-04T10:02:44;18.52;;;7.70;;
18520;SDS011;9390;51.244;6.982;2023-03-04T10:05:23;20.80;;;7.15;;
18520;SDS011;9390;51.244;6.982;2023-03-04T10:07:56;18.83;;;7.23;;
18520;SDS011;9390;51.244;6.982;2023-03-04T10:10:29;20.25;;;7.88;;
18520;SDS011;9390;51.244;6.982;2023-03-04T10:13:03;21.00;;;7.57;;
18520;SDS011;9390;51.244;6.982;2023-03-04T10:15:37;22.35;;;7.43;;
18520;SDS011;9390;51.244;6.982;2023-03-04T10:18:13;30.60;;;8.30;;
18520;SDS011;9390;51.244;6.982;2023-03-04T10:20:50;24.05;;;8.95;;
18520;SDS011;9390;51.244;6.982;2023-03-04T10:23:24;20.83;;;9.63;;
18520;SDS011;9390;51.244;6.982;2023-03-04T10:25:56;22.70;;;10.80;;
18520;SDS011;9390;51.244;6.982;2023-03-04T10:31:01;26.38;;;10.65;;
18520;SDS011;9390;51.244;6.982;2023-03-04T10:33:37;21.65;;;10.05;;
18520;SDS011;9390;51.244;6.982;2023-03-04T10:36:15;27.58;;;9.75;;
18520;SDS011;9390;51.244;6.982;2023-03-04T10:39:05;25.30;;;10.85;;
18520;SDS011;9390;51.244;6.982;2023-03-04T10:41:40;38.55;;;13.95;;
18520;SDS011;9390;51.244;6.982;2023-03-04T10:44:14;30.50;;;12.20;;
18520;SDS011;9390;51.244;6.982;2023-03-04T10:46:47;29.00;;;13.07;;
18520;SDS011;9390;51.244;6.982;2023-03-04T10:49:20;19.67;;;9.15;;
18520;SDS011;9390;51.244;6.982;2023-03-04T10:51:54;21.17;;;8.63;;
18520;SDS011;9390;51.244;6.982;2023-03-04T10:54:34;26.25;;;9.95;;
18520;SDS011;9390;51.244;6.982;2023-03-04T10:57:12;26.55;;;10.10;;
18520;SDS011;9390;51.244;6.982;2023-03-04T10:59:45;21.00;;;9.10;;
18520;SDS011;9390;51.244;6.982;2023-03-04T11:02:20;18.88;;;8.38;;
18520;SDS011;9390;51.244;6.982;2023-03-04T11:04:56;24.90;;;9.30;;
18520;SDS011;9390;51.244;6.982;2023-03-04T11:07:38;23.40;;;9.18;;
18520;SDS011;9390;51.244;6.982;2023-03-04T11:10:13;27.95;;;12.18;;
18520;SDS011;9390;51.244;6.982;2023-03-04T11:12:47;24.40;;;11.02;;
18520;SDS011;9390;51.244;6.982;2023-03-04T11:15:20;18.75;;;9.63;;
18520;SDS011;9390;51.244;6.982;2023-03-04T11:17:57;24.40;;;11.55;;
18520;SDS011;9390;51.244;6.982;2023-03-04T11:20:32;24.73;;;9.15;;
18520;SDS011;9390;51.244;6.982;2023-03-04T11:23:05;22.52;;;10.15;;
18520;SDS011;9390;51.244;6.982;2023-03-04T11:25:42;18.65;;;7.47;;
18520;SDS011;9390;51.244;6.982;2023-03-04T11:28:16;17.90;;;6.38;;
18520;SDS011;9390;51.244;6.982;2023-03-04T11:30:51;16.98;;;6.07;;
18520;SDS011;9390;51.244;6.982;2023-03-04T11:33:25;12.93;;;5.45;;
18520;SDS011;9390;51.244;6.982;2023-03-04T11:36:05;14.38;;;4.47;;
18520;SDS011;9390;51.244;6.982;2023-03-04T11:38:45;8.30;;;3.40;;
18520;SDS011;9390;51.244;6.982;2023-03-04T11:41:19;9.30;;;3.45;;
18520;SDS011;9390;51.244;6.982;2023-03-04T11:43:52;11.90;;;3.08;;
18520;SDS011;9390;51.244;6.982;2023-03-04T11:46:36;9.80;;;3.08;;
18520;SDS011;9390;51.244;6.982;2023-03-04T11:49:26;8.63;;;3.10;;
18520;SDS011;9390;51.244;6.982;2023-03-04T11:52:05;11.10;;;2.92;;
18520;SDS011;9390;51.244;6.982;2023-03-04T11:54:42;8.75;;;3.20;;
18520;SDS011;9390;51.244;6.982;2023-03-04T11:57:31;8.80;;;3.55;;
18520;SDS011;9390;51.244;6.982;2023-03-04T12:00:11;11.15;;;3.53;;
18520;SDS011;9390;51.244;6.982;2023-03-04T12:02:53;14.40;;;5.47;;
18520;SDS011;9390;51.244;6.982;2023-03-04T12:05:36;13.43;;;6.10;;
18520;SDS011;9390;51.244;6.982;2023-03-04T12:08:27;21.05;;;6.90;;
18520;SDS011;9390;51.244;6.982;2023-03-04T12:11:04;15.38;;;6.10;;
18520;SDS011;9390;51.244;6.982;2023-03-04T12:13:42;15.00;;;6.55;;
18520;SDS011;9390;51.244;6.982;2023-03-04T12:16:30;12.88;;;6.70;;
18520;SDS011;9390;51.244;6.982;2023-03-04T12:19:24;12.48;;;4.93;;
18520;SDS011;9390;51.244;6.982;2023-03-04T12:22:03;13.20;;;4.78;;
18520;SDS011;9390;51.244;6.982;2023-03-04T12:24:53;16.98;;;5.43;;
18520;SDS011;9390;51.244;6.982;2023-03-04T12:27:35;14.48;;;5.18;;
18520;SDS011;9390;51.244;6.982;2023-03-04T12:30:15;13.13;;;6.72;;
18520;SDS011;9390;51.244;6.982;2023-03-04T12:32:51;15.23;;;6.88;;
18520;SDS011;9390;51.244;6.982;2023-03-04T12:35:30;13.43;;;7.30;;
18520;SDS011;9390;51.244;6.982;2023-03-04T12:38:08;19.67;;;9.45;;
18520;SDS011;9390;51.244;6.982;2023-03-04T12:40:48;18.85;;;7.90;;
18520;SDS011;9390;51.244;6.982;2023-03-04T12:43:27;16.17;;;8.13;;
18520;SDS011;9390;51.244;6.982;2023-03-04T12:46:06;15.93;;;6.18;;
18520;SDS011;9390;51.244;6.982;2023-03-04T12:48:46;10.82;;;4.68;;
18520;SDS011;9390;51.244;6.982;2023-03-04T12:51:26;9.52;;;4.70;;
18520;SDS011;9390;51.244;6.982;2023-03-04T12:54:13;11.35;;;4.68;;
18520;SDS011;9390;51.244;6.982;2023-03-04T12:56:52;11.57;;;4.20;;
18520;SDS011;9390;51.244;6.982;2023-03-04T12:59:25;8.68;;;3.45;;
18520;SDS011;9390;51.244;6.982;2023-03-04T13:02:01;10.50;;;3.25;;
18520;SDS011;9390;51.244;6.982;2023-03-04T13:04:45;10.57;;;3.63;;
18520;SDS011;9390;51.244;6.982;2023-03-04T13:07:21;8.35;;;3.55;;
18520;SDS011;9390;51.244;6.982;2023-03-04T13:10:04;8.63;;;3.58;;
18520;SDS011;9390;51.244;6.982;2023-03-04T13:12:47;9.13;;;3.22;;
18520;SDS011;9390;51.244;6.982;2023-03-04T13:15:30;10.23;;;3.75;;
18520;SDS011;9390;51.244;6.982;2023-03-04T13:21:14;10.35;;;4.82;;
18520;SDS011;9390;51.244;6.982;2023-03-04T13:23:48;16.60;;;6.53;;
18520;SDS011;9390;51.244;6.982;2023-03-04T13:26:21;13.35;;;6.65;;
18520;SDS011;9390;51.244;6.982;2023-03-04T13:29:07;18.75;;;8.07;;
18520;SDS011;9390;51.244;6.982;2023-03-04T13:31:57;13.38;;;6.03;;
18520;SDS011;9390;51.244;6.982;2023-03-04T13:34:48;14.07;;;5.55;;
18520;SDS011;9390;51.244;6.982;2023-03-04T13:37:31;11.93;;;4.95;;
18520;SDS011;9390;51.244;6.982;2023-03-04T13:40:22;10.07;;;4.15;;
18520;SDS011;9390;51.244;6.982;2023-03-04T13:45:57;11.40;;;5.38;;
18520;SDS011;9390;51.244;6.982;2023-03-04T13:49:15;10.93;;;4.68;;
18520;SDS011;9390;51.244;6.982;2023-03-04T13:51:50;13.48;;;4.80;;
18520;SDS011;9390;51.244;6.982;2023-03-04T13:54:22;11.60;;;4.72;;
18520;SDS011;9390;51.244;6.982;2023-03-04T13:57:16;13.43;;;5.40;;
18520;SDS011;9390;51.244;6.982;2023-03-04T13:59:48;11.45;;;5.57;;
18520;SDS011;9390;51.244;6.982;2023-03-04T14:02:22;11.63;;;5.15;;
18520;SDS011;9390;51.244;6.982;2023-03-04T14:04:56;13.20;;;5.40;;
18520;SDS011;9390;51.244;6.982;2023-03-04T14:07:31;14.45;;;5.28;;
18520;SDS011;9390;51.244;6.982;2023-03-04T14:10:06;10.93;;;4.50;;
18520;SDS011;9390;51.244;6.982;2023-03-04T14:12:50;10.10;;;4.28;;
18520;SDS011;9390;51.244;6.982;2023-03-04T14:15:24;10.20;;;4.88;;
18520;SDS011;9390;51.244;6.982;2023-03-04T14:17:58;11.15;;;4.70;;
18520;SDS011;9390;51.244;6.982;2023-03-04T14:20:31;7.75;;;4.03;;
18520;SDS011;9390;51.244;6.982;2023-03-04T14:23:05;17.17;;;6.03;;
18520;SDS011;9390;51.244;6.982;2023-03-04T14:26:08;13.23;;;5.50;;
18520;SDS011;9390;51.244;6.982;2023-03-04T14:28:42;12.77;;;5.32;;
18520;SDS011;9390;51.244;6.982;2023-03-04T14:31:15;10.48;;;5.15;;
18520;SDS011;9390;51.244;6.982;2023-03-04T14:33:50;10.95;;;4.68;;
18520;SDS011;9390;51.244;6.982;2023-03-04T14:36:23;10.88;;;4.40;;
18520;SDS011;9390;51.244;6.982;2023-03-04T14:38:55;12.43;;;4.70;;
18520;SDS011;9390;51.244;6.982;2023-03-04T14:41:29;12.63;;;5.60;;
18520;SDS011;9390;51.244;6.982;2023-03-04T14:44:05;19.40;;;7.65;;
18520;SDS011;9390;51.244;6.982;2023-03-04T14:46:39;16.65;;;6.60;;
18520;SDS011;9390;51.244;6.982;2023-03-04T14:49:13;10.80;;;5.10;;
18520;SDS011;9390;51.244;6.982;2023-03-04T14:51:46;16.80;;;5.68;;
18520;SDS011;9390;51.244;6.982;2023-03-04T14:54:27;13.02;;;5.65;;
18520;SDS011;9390;51.244;6.982;2023-03-04T14:57:01;12.48;;;5.60;;
18520;SDS011;9390;51.244;6.982;2023-03-04T14:59:53;10.07;;;4.97;;
18520;SDS011;9390;51.244;6.982;2023-03-04T15:02:26;14.35;;;5.47;;
18520;SDS011;9390;51.244;6.982;2023-03-04T15:05:06;12.10;;;4.78;;
18520;SDS011;9390;51.244;6.982;2023-03-04T15:07:39;12.02;;;5.68;;
18520;SDS011;9390;51.244;6.982;2023-03-04T15:10:11;12.52;;;4.88;;
18520;SDS011;9390;51.244;6.982;2023-03-04T15:12:45;10.20;;;5.07;;
18520;SDS011;9390;51.244;6.982;2023-03-04T15:15:31;11.77;;;5.22;;
18520;SDS011;9390;51.244;6.982;2023-03-04T15:18:20;9.60;;;4.97;;
18520;SDS011;9390;51.244;6.982;2023-03-04T15:20:57;12.20;;;6.70;;
18520;SDS011;9390;51.244;6.982;2023-03-04T15:23:30;12.90;;;4.20;;
18520;SDS011;9390;51.244;6.982;2023-03-04T15:26:03;8.80;;;3.60;;
18520;SDS011;9390;51.244;6.982;2023-03-04T15:28:36;11.57;;;3.83;;
18520;SDS011;9390;51.244;6.982;2023-03-04T15:31:13;11.00;;;4.15;;
18520;SDS011;9390;51.244;6.982;2023-03-04T15:33:46;11.50;;;4.82;;
18520;SDS011;9390;51.244;6.982;2023-03-04T15:36:20;10.13;;;4.13;;
18520;SDS011;9390;51.244;6.982;2023-03-04T15:38:52;11.00;;;4.35;;
18520;SDS011;9390;51.244;6.982;2023-03-04T15:41:25;9.93;;;4.28;;